createdAt,value
2022-12-04T00:00:17.713Z,101941.03
2022-12-04T00:03:20.401Z,101935.75
2022-12-04T00:06:24.577Z,101935.44
2022-12-04T00:09:27.508Z,101934.75
2022-12-04T00:12:30.290Z,101933.81
2022-12-04T00:15:34.250Z,101933.00
2022-12-04T00:18:37.557Z,101924.50
2022-12-04T00:21:40.237Z,101924.38
2022-12-04T00:24:42.855Z,101922.66
2022-12-04T00:27:45.503Z,101926.88
2022-12-04T00:30:49.524Z,101926.84
2022-12-04T00:33:52.404Z,101924.41
2022-12-04T00:36:55.021Z,101918.25
2022-12-04T00:39:57.808Z,101915.66
2022-12-04T00:43:00.487Z,101916.63
2022-12-04T00:46:04.643Z,101909.69
2022-12-04T00:49:07.358Z,101907.06
2022-12-04T00:52:09.999Z,101901.63
2022-12-04T00:55:12.842Z,101915.63
2022-12-04T00:58:15.510Z,101909.59
2022-12-04T01:01:21.547Z,101904.34
2022-12-04T01:04:24.241Z,101910.50
2022-12-04T01:07:26.933Z,101912.25
2022-12-04T01:10:29.588Z,101910.50
2022-12-04T01:13:32.236Z,101914.91
2022-12-04T01:16:38.201Z,101918.25
2022-12-04T01:19:41.053Z,101913.91
2022-12-04T01:22:43.908Z,101910.72
2022-12-04T01:25:53.726Z,101913.88
2022-12-04T01:28:56.544Z,101909.63
2022-12-04T01:32:00.627Z,101906.16
2022-12-04T01:35:03.362Z,101906.22
2022-12-04T01:38:05.993Z,101902.75
2022-12-04T01:41:10.538Z,101907.94
2022-12-04T01:44:16.975Z,101908.69
2022-12-04T01:47:20.953Z,101906.97
2022-12-04T01:50:23.864Z,101900.72
2022-12-04T01:53:27.271Z,101904.31
2022-12-04T01:56:37.798Z,101898.31
2022-12-04T01:59:44.664Z,101892.09
2022-12-04T02:02:49.470Z,101900.75
2022-12-04T02:05:52.122Z,101897.44
2022-12-04T02:08:54.974Z,101900.91
2022-12-04T02:12:08.390Z,101898.28
2022-12-04T02:15:17.928Z,101902.25
2022-12-04T02:18:30.600Z,101889.97
2022-12-04T02:21:36.938Z,101887.78
2022-12-04T02:24:53.215Z,101889.31
2022-12-04T02:28:06.044Z,101876.25
2022-12-04T02:31:17.951Z,101876.81
2022-12-04T02:34:27.296Z,101880.69
2022-12-04T02:37:34.047Z,101880.75
2022-12-04T02:40:43.151Z,101872.03
2022-12-04T02:43:51.244Z,101886.88
2022-12-04T02:46:58.890Z,101879.00
2022-12-04T02:50:06.984Z,101880.72
2022-12-04T02:53:13.877Z,101878.97
2022-12-04T02:56:21.023Z,101881.53
2022-12-04T02:59:31.236Z,101876.41
2022-12-04T03:02:38.990Z,101874.72
2022-12-04T03:05:49.336Z,101878.25
2022-12-04T03:08:57.760Z,101879.16
2022-12-04T03:12:08.710Z,101878.22
2022-12-04T03:15:17.199Z,101886.00
2022-12-04T03:18:23.547Z,101879.91
2022-12-04T03:21:29.049Z,101882.41
2022-12-04T03:24:35.560Z,101882.50
2022-12-04T03:27:45.137Z,101878.13
2022-12-04T03:30:58.117Z,101886.94
2022-12-04T03:34:04.979Z,101871.28
2022-12-04T03:37:14.622Z,101872.19
2022-12-04T03:40:22.967Z,101871.34
2022-12-04T03:43:29.049Z,101867.81
2022-12-04T03:46:39.514Z,101864.25
2022-12-04T03:49:47.793Z,101862.56
2022-12-04T03:52:57.699Z,101860.78
2022-12-04T03:56:06.349Z,101862.53
2022-12-04T03:59:13.478Z,101865.97
2022-12-04T04:02:22.081Z,101869.41
2022-12-04T04:05:26.937Z,101871.28
2022-12-04T04:08:35.558Z,101861.72
2022-12-04T04:11:45.111Z,101863.44
2022-12-04T04:15:09.834Z,101866.00
2022-12-04T04:18:31.273Z,101860.75
2022-12-04T04:22:07.597Z,101855.56
2022-12-04T04:25:13.033Z,101860.78
2022-12-04T04:28:32.503Z,101862.56
2022-12-04T04:31:39.899Z,101862.59
2022-12-04T04:34:51.412Z,101865.22
2022-12-04T04:38:01.405Z,101870.47
2022-12-04T04:41:12.971Z,101865.16
2022-12-04T04:44:22.180Z,101860.88
2022-12-04T04:47:29.261Z,101867.81
2022-12-04T04:50:35.158Z,101868.59
2022-12-04T04:53:41.637Z,101871.16
2022-12-04T04:56:46.026Z,101875.59
2022-12-04T04:59:48.617Z,101869.59
2022-12-04T05:02:51.314Z,101878.00
2022-12-04T05:05:55.504Z,101872.03
2022-12-04T05:08:58.108Z,101873.91
2022-12-04T05:12:00.750Z,101878.31
2022-12-04T05:15:03.644Z,101873.97
2022-12-04T05:18:06.356Z,101869.56
2022-12-04T05:21:16.852Z,101879.06
2022-12-04T05:24:19.440Z,101886.91
2022-12-04T05:27:22.939Z,101873.66
2022-12-04T05:30:25.752Z,101875.63
2022-12-04T05:33:28.794Z,101866.88
2022-12-04T05:36:32.906Z,101877.31
2022-12-04T05:39:36.338Z,101876.56
2022-12-04T05:42:38.919Z,101873.06
2022-12-04T05:45:41.534Z,101869.59
2022-12-04T05:48:44.173Z,101864.31
2022-12-04T05:51:48.129Z,101877.44
2022-12-04T05:54:50.784Z,101871.34
2022-12-04T05:57:53.401Z,101869.56
2022-12-04T06:00:56.483Z,101867.78
2022-12-04T06:03:59.279Z,101867.75
2022-12-04T06:07:03.224Z,101862.63
2022-12-04T06:10:07.391Z,101861.78
2022-12-04T06:13:10.091Z,101865.19
2022-12-04T06:16:16.769Z,101870.25
2022-12-04T06:19:20.939Z,101875.72
2022-12-04T06:22:24.924Z,101876.63
2022-12-04T06:25:27.615Z,101873.16
2022-12-04T06:28:30.238Z,101874.94
2022-12-04T06:31:33.564Z,101886.19
2022-12-04T06:34:36.982Z,101878.34
2022-12-04T06:37:40.981Z,101874.94
2022-12-04T06:40:43.661Z,101874.94
2022-12-04T06:43:46.609Z,101867.03
2022-12-04T06:46:50.354Z,101879.31
2022-12-04T06:49:53.250Z,101882.75
2022-12-04T06:52:57.424Z,101877.22
2022-12-04T06:56:01.386Z,101881.53
2022-12-04T06:59:05.654Z,101888.63
2022-12-04T07:02:08.303Z,101884.38
2022-12-04T07:05:11.235Z,101885.16
2022-12-04T07:08:15.694Z,101881.63
2022-12-04T07:11:18.936Z,101883.50
2022-12-04T07:14:21.533Z,101877.34
2022-12-04T07:17:24.193Z,101891.31
2022-12-04T07:20:27.659Z,101883.56
2022-12-04T07:23:31.640Z,101886.22
2022-12-04T07:26:34.453Z,101881.88
2022-12-04T07:29:37.145Z,101875.84
2022-12-04T07:32:39.857Z,101892.44
2022-12-04T07:35:42.524Z,101897.59
2022-12-04T07:38:47.332Z,101901.16
2022-12-04T07:41:49.948Z,101893.28
2022-12-04T07:44:52.569Z,101895.06
2022-12-04T07:47:55.163Z,101894.25
2022-12-04T07:51:03.629Z,101903.03
2022-12-04T07:54:08.722Z,101903.03
2022-12-04T07:57:11.323Z,101901.28
2022-12-04T08:00:15.860Z,101904.78
2022-12-04T08:03:18.585Z,101910.00
2022-12-04T08:06:23.265Z,101903.91
2022-12-04T08:09:27.237Z,101906.53
2022-12-04T08:12:29.883Z,101910.09
2022-12-04T08:15:32.498Z,101915.38
2022-12-04T08:18:35.454Z,101908.38
2022-12-04T08:21:38.188Z,101909.19
2022-12-04T08:24:42.570Z,101908.34
2022-12-04T08:27:47.737Z,101911.81
2022-12-04T08:30:50.499Z,101904.84
2022-12-04T08:33:55.238Z,101906.63
2022-12-04T08:36:57.902Z,101906.53
2022-12-04T08:40:01.913Z,101897.81
2022-12-04T08:43:04.564Z,101896.03
2022-12-04T08:46:09.630Z,101889.09
2022-12-04T08:49:12.478Z,101897.88
2022-12-04T08:52:15.124Z,101894.31
2022-12-04T08:55:19.288Z,101897.88
2022-12-04T08:58:21.935Z,101892.59
2022-12-04T09:01:25.492Z,101891.69
2022-12-04T09:04:28.257Z,101889.84
2022-12-04T09:07:30.976Z,101889.84
2022-12-04T09:10:36.315Z,101895.06
2022-12-04T09:13:39.894Z,101894.25
2022-12-04T09:16:42.501Z,101894.28
2022-12-04T09:19:45.260Z,101894.38
2022-12-04T09:23:03.289Z,101889.06
2022-12-04T09:26:19.301Z,101896.19
2022-12-04T09:29:21.982Z,101896.13
2022-12-04T09:32:24.567Z,101896.16
2022-12-04T09:35:27.212Z,101890.88
2022-12-04T09:38:30.740Z,101894.47
2022-12-04T09:41:59.119Z,101891.81
2022-12-04T09:45:07.176Z,101892.72
2022-12-04T09:48:12.441Z,101890.97
2022-12-04T09:51:19.399Z,101883.09
2022-12-04T09:54:24.785Z,101876.06
2022-12-04T09:57:36.271Z,101878.69
2022-12-04T10:00:43.544Z,101878.69
2022-12-04T10:03:46.371Z,101868.16
2022-12-04T10:06:55.802Z,101870.78
2022-12-04T10:10:03.989Z,101869.94
2022-12-04T10:13:19.354Z,101869.06
2022-12-04T10:16:29.303Z,101872.56
2022-12-04T10:19:38.527Z,101865.56
2022-12-04T10:22:50.948Z,101870.81
2022-12-04T10:25:56.070Z,101873.47
2022-12-04T10:29:03.565Z,101867.31
2022-12-04T10:32:18.196Z,101872.59
2022-12-04T10:35:23.150Z,101869.06
2022-12-04T10:38:34.676Z,101862.94
2022-12-04T10:41:44.612Z,101864.72
2022-12-04T10:44:48.642Z,101857.69
2022-12-04T10:47:53.533Z,101854.16
2022-12-04T10:50:56.144Z,101859.44
2022-12-04T10:53:58.774Z,101859.44
2022-12-04T10:57:03.776Z,101852.41
2022-12-04T11:00:26.891Z,101847.16
2022-12-04T11:03:30.482Z,101852.44
2022-12-04T11:06:33.617Z,101848.94
2022-12-04T11:09:36.843Z,101852.41
2022-12-04T11:12:39.509Z,101847.16
2022-12-04T11:15:45.715Z,101844.53
2022-12-04T11:18:50.237Z,101842.78
2022-12-04T11:21:53.762Z,101844.53
2022-12-04T11:24:58.827Z,101837.53
2022-12-04T11:28:03.573Z,101828.75
2022-12-04T11:31:10.371Z,101837.53
2022-12-04T11:34:20.391Z,101834.00
2022-12-04T11:37:26.915Z,101830.50
2022-12-04T11:40:30.216Z,101833.13
2022-12-04T11:43:33.934Z,101828.75
2022-12-04T11:46:38.053Z,101820.84
2022-12-04T11:49:43.816Z,101817.38
2022-12-04T11:52:59.073Z,101807.72
2022-12-04T11:56:21.086Z,101820.00
2022-12-04T11:59:46.918Z,101811.22
2022-12-04T12:03:11.009Z,101800.72
2022-12-04T12:06:24.565Z,101802.44
2022-12-04T12:09:36.017Z,101794.56
2022-12-04T12:12:50.884Z,101801.59
2022-12-04T12:16:01.563Z,101797.19
2022-12-04T12:19:17.058Z,101798.91
2022-12-04T12:22:37.258Z,101791.03
2022-12-04T12:25:52.121Z,101796.31
2022-12-04T12:29:11.523Z,101795.38
2022-12-04T12:32:28.038Z,101794.56
2022-12-04T12:35:36.891Z,101798.00
2022-12-04T12:38:44.665Z,101789.28
2022-12-04T12:41:51.774Z,101787.56
2022-12-04T12:45:01.198Z,101786.66
2022-12-04T12:48:11.960Z,101785.78
2022-12-04T12:51:30.040Z,101792.75
2022-12-04T12:54:41.711Z,101777.00
2022-12-04T12:57:48.140Z,101764.69
2022-12-04T13:01:07.858Z,101758.56
2022-12-04T13:04:14.199Z,101755.03
2022-12-04T13:07:28.844Z,101754.19
2022-12-04T13:10:36.306Z,101751.50
2022-12-04T13:13:44.133Z,101746.28
2022-12-04T13:16:50.654Z,101736.66
2022-12-04T13:19:56.281Z,101734.91
2022-12-04T13:23:16.241Z,101735.66
2022-12-04T13:26:34.269Z,101729.50
2022-12-04T13:29:50.706Z,101727.81
2022-12-04T13:33:35.709Z,101734.75
2022-12-04T13:36:56.850Z,101725.13
2022-12-04T13:40:33.353Z,101713.75
2022-12-04T13:43:38.233Z,101721.59
2022-12-04T13:46:43.911Z,101733.06
2022-12-04T13:49:46.808Z,101730.50
2022-12-04T13:52:49.429Z,101731.25
2022-12-04T13:56:00.828Z,101729.53
2022-12-04T13:59:08.145Z,101733.16
2022-12-04T14:02:32.144Z,101739.31
2022-12-04T14:05:42.474Z,101735.69
2022-12-04T14:08:45.139Z,101745.41
2022-12-04T14:11:53.840Z,101740.13
2022-12-04T14:14:59.316Z,101741.94
2022-12-04T14:18:04.537Z,101743.56
2022-12-04T14:21:07.522Z,101748.00
2022-12-04T14:24:17.605Z,101748.03
2022-12-04T14:27:43.274Z,101748.00
2022-12-04T14:30:57.828Z,101750.56
2022-12-04T14:34:04.336Z,101747.06
2022-12-04T14:37:07.967Z,101745.41
2022-12-04T14:40:20.832Z,101736.63
2022-12-04T14:43:28.100Z,101743.63
2022-12-04T14:46:43.803Z,101736.59
2022-12-04T14:50:10.278Z,101731.34
2022-12-04T14:53:24.630Z,101727.69
2022-12-04T14:56:48.864Z,101725.00
2022-12-04T14:59:54.869Z,101728.56
2022-12-04T15:03:00.715Z,101731.19
2022-12-04T15:06:06.006Z,101727.81
2022-12-04T15:09:35.117Z,101712.97
2022-12-04T15:12:44.073Z,101710.31
2022-12-04T15:15:48.346Z,101722.47
2022-12-04T15:18:54.893Z,101718.88
2022-12-04T15:21:57.672Z,101719.69
2022-12-04T15:25:00.559Z,101716.31
2022-12-04T15:28:08.833Z,101712.78
2022-12-04T15:31:18.298Z,101714.59
2022-12-04T15:34:27.573Z,101717.16
2022-12-04T15:37:32.454Z,101713.63
2022-12-04T15:40:35.073Z,101711.19
2022-12-04T15:43:41.766Z,101704.22
2022-12-04T15:46:45.966Z,101705.97
2022-12-04T15:49:50.234Z,101705.06
2022-12-04T15:52:58.334Z,101701.50
2022-12-04T15:56:03.805Z,101704.06
2022-12-04T15:59:06.460Z,101706.69
2022-12-04T16:02:26.417Z,101702.94
2022-12-04T16:05:34.888Z,101703.94
2022-12-04T16:08:39.589Z,101706.63
2022-12-04T16:11:42.823Z,101703.91
2022-12-04T16:14:45.450Z,101699.50
2022-12-04T16:17:49.450Z,101700.47
2022-12-04T16:20:52.104Z,101702.19
2022-12-04T16:23:54.701Z,101697.03
2022-12-04T16:26:59.964Z,101700.50
2022-12-04T16:30:02.585Z,101691.56
2022-12-04T16:33:06.689Z,101695.94
2022-12-04T16:36:11.288Z,101703.19
2022-12-04T16:39:14.079Z,101704.84
2022-12-04T16:42:18.348Z,101706.69
2022-12-04T16:45:27.242Z,101711.00
2022-12-04T16:48:34.622Z,101706.56
2022-12-04T16:51:39.444Z,101706.53
2022-12-04T16:54:42.267Z,101708.19
2022-12-04T16:57:44.877Z,101708.16
2022-12-04T17:00:57.707Z,101713.47
2022-12-04T17:04:01.957Z,101712.63
2022-12-04T17:07:04.599Z,101721.53
2022-12-04T17:10:08.386Z,101725.03
2022-12-04T17:13:11.024Z,101714.66
2022-12-04T17:16:15.219Z,101732.09
2022-12-04T17:19:22.261Z,101718.84
2022-12-04T17:22:26.424Z,101724.16
2022-12-04T17:25:29.075Z,101725.84
2022-12-04T17:28:32.556Z,101738.13
2022-12-04T17:31:35.307Z,101748.56
2022-12-04T17:34:39.502Z,101746.94
2022-12-04T17:37:42.184Z,101746.88
2022-12-04T17:40:44.781Z,101751.25
2022-12-04T17:43:47.689Z,101745.03
2022-12-04T17:46:50.413Z,101736.25
2022-12-04T17:49:54.421Z,101740.72
2022-12-04T17:52:57.072Z,101739.75
2022-12-04T17:56:04.087Z,101738.03
2022-12-04T17:59:07.218Z,101746.72
2022-12-04T18:02:10.578Z,101745.88
2022-12-04T18:05:14.905Z,101744.19
2022-12-04T18:08:17.695Z,101745.09
2022-12-04T18:11:21.480Z,101745.00
2022-12-04T18:14:24.096Z,101744.03
2022-12-04T18:17:26.754Z,101746.69
2022-12-04T18:20:30.715Z,101750.25
2022-12-04T18:23:33.545Z,101740.53
2022-12-04T18:26:38.240Z,101736.94
2022-12-04T18:29:41.125Z,101737.81
2022-12-04T18:32:45.046Z,101737.84
2022-12-04T18:35:55.745Z,101745.97
2022-12-04T18:39:00.028Z,101746.00
2022-12-04T18:42:02.649Z,101740.63
2022-12-04T18:45:05.931Z,101749.47
2022-12-04T18:48:08.576Z,101748.44
2022-12-04T18:51:21.885Z,101749.34
2022-12-04T18:54:25.037Z,101751.97
2022-12-04T18:57:27.676Z,101743.22
2022-12-04T19:00:30.342Z,101751.13
2022-12-04T19:03:32.959Z,101748.44
2022-12-04T19:06:38.627Z,101748.44
2022-12-04T19:10:09.866Z,101747.63
2022-12-04T19:13:03.924Z,101757.22
2022-12-04T19:16:12.420Z,101759.03
2022-12-04T19:19:16.815Z,101758.09
2022-12-04T19:22:20.807Z,101759.09
2022-12-04T19:25:23.410Z,101759.94
2022-12-04T19:28:27.507Z,101757.22
2022-12-04T19:31:34.150Z,101760.72
2022-12-04T19:34:37.264Z,101767.84
2022-12-04T19:37:42.156Z,101750.41
2022-12-04T19:40:45.179Z,101754.75
2022-12-04T19:43:49.897Z,101756.44
2022-12-04T19:46:52.567Z,101749.28
2022-12-04T19:49:55.388Z,101744.06
2022-12-04T19:52:59.520Z,101743.22
2022-12-04T19:56:07.536Z,101746.88
2022-12-04T19:59:11.188Z,101739.84
2022-12-04T20:02:14.332Z,101739.00
2022-12-04T20:05:17.218Z,101743.41
2022-12-04T20:08:21.382Z,101742.53
2022-12-04T20:11:24.558Z,101731.88
2022-12-04T20:14:27.224Z,101735.38
2022-12-04T20:17:31.284Z,101734.50
2022-12-04T20:20:33.900Z,101732.84
2022-12-04T20:23:38.213Z,101737.94
2022-12-04T20:26:42.761Z,101735.41
2022-12-04T20:29:45.472Z,101729.44
2022-12-04T20:32:48.097Z,101728.44
2022-12-04T20:35:50.756Z,101726.66
2022-12-04T20:38:58.080Z,101727.41
2022-12-04T20:42:01.089Z,101729.13
2022-12-04T20:45:03.770Z,101723.09
2022-12-04T20:48:06.778Z,101720.41
2022-12-04T20:51:09.417Z,101718.59
2022-12-04T20:54:17.732Z,101713.44
2022-12-04T20:57:20.393Z,101714.31
2022-12-04T21:00:23.110Z,101719.59
2022-12-04T21:03:25.753Z,101716.91
2022-12-04T21:06:34.820Z,101713.50
2022-12-04T21:09:39.199Z,101715.34
2022-12-04T21:12:59.262Z,101712.63
2022-12-04T21:16:02.118Z,101702.94
2022-12-04T21:19:06.164Z,101692.38
2022-12-04T21:22:08.829Z,101702.91
2022-12-04T21:25:12.833Z,101701.06
2022-12-04T21:28:15.475Z,101702.16
2022-12-04T21:31:18.174Z,101703.81
2022-12-04T21:34:20.925Z,101699.31
2022-12-04T21:37:23.568Z,101695.91
2022-12-04T21:40:27.531Z,101687.09
2022-12-04T21:43:31.214Z,101690.47
2022-12-04T21:46:34.036Z,101698.69
2022-12-04T21:49:36.762Z,101683.53
2022-12-04T21:52:39.410Z,101691.44
2022-12-04T21:55:48.952Z,101688.88
2022-12-04T21:58:52.166Z,101675.84
2022-12-04T22:01:55.306Z,101673.06
2022-12-04T22:04:58.049Z,101676.44
2022-12-04T22:08:01.095Z,101666.09
2022-12-04T22:11:07.703Z,101668.00
2022-12-04T22:14:11.291Z,101675.88
2022-12-04T22:17:13.932Z,101681.84
2022-12-04T22:20:17.097Z,101688.25
2022-12-04T22:23:19.708Z,101683.66
2022-12-04T22:26:23.885Z,101690.53
2022-12-04T22:29:49.147Z,101688.00
2022-12-04T22:32:49.112Z,101694.97
2022-12-04T22:35:51.728Z,101689.75
2022-12-04T22:39:11.059Z,101689.72
2022-12-04T22:42:15.287Z,101691.56
2022-12-04T22:45:18.179Z,101688.84
2022-12-04T22:48:20.784Z,101686.19
2022-12-04T22:51:23.837Z,101676.56
2022-12-04T22:54:26.477Z,101681.00
2022-12-04T22:57:30.467Z,101678.34
2022-12-04T23:00:33.089Z,101671.41
2022-12-04T23:03:35.806Z,101674.94
2022-12-04T23:06:38.818Z,101672.19
2022-12-04T23:09:41.470Z,101668.59
2022-12-04T23:12:45.445Z,101673.94
2022-12-04T23:15:50.243Z,101667.66
2022-12-04T23:18:53.811Z,101673.72
2022-12-04T23:21:57.436Z,101668.38
2022-12-04T23:25:00.215Z,101664.84
2022-12-04T23:28:04.302Z,101655.31
2022-12-04T23:31:07.136Z,101657.22
2022-12-04T23:34:09.801Z,101656.13
2022-12-04T23:37:12.474Z,101648.13
2022-12-04T23:40:15.497Z,101636.88
2022-12-04T23:43:20.499Z,101647.50
2022-12-04T23:46:25.679Z,101642.31
2022-12-04T23:49:28.520Z,101648.59
2022-12-04T23:52:31.157Z,101649.22
2022-12-04T23:55:34.673Z,101644.81
2022-12-04T23:58:39.678Z,101644.03
